Time;durP1;ratioP1;P1;durP2;ratioP2;P2;SDS_P1;SDS_P2;PMS_P1;PMS_P2;Temp;Humidity;BMP_temperature;BMP_pressure;BME280_temperature;BME280_humidity;BME280_pressure;Samples;Min_cycle;Max_cycle;Signal;HPM_P1;HPM_P2
2023/04/19 00:01:25;;;;;;;16.42;10.05;;;9.40;99.90;;;;;;6364027;22;20022;-67
2023/04/19 00:03:50;;;;;;;17.95;9.57;;;9.50;99.90;;;;;;6364476;22;20014;-67
2023/04/19 00:06:16;;;;;;;20.17;10.40;;;9.40;99.90;;;;;;6364336;22;20322;-67
2023/04/19 00:08:43;;;;;;;15.70;10.60;;;9.40;99.90;;;;;;6336435;22;20105;-67
2023/04/19 00:11:09;;;;;;;13.35;9.20;;;9.40;99.90;;;;;;6336421;22;20023;-66
2023/04/19 00:13:35;;;;;;;15.38;8.90;;;9.40;99.90;;;;;;6364519;22;20007;-67
2023/04/19 00:16:01;;;;;;;16.42;9.95;;;9.40;99.90;;;;;;6364538;22;20037;-67
2023/04/19 00:18:27;;;;;;;14.00;9.85;;;9.40;99.90;;;;;;6365070;22;20018;-67
2023/04/19 00:20:53;;;;;;;15.43;9.95;;;9.40;99.90;;;;;;6364558;22;20731;-67
2023/04/19 00:23:18;;;;;;;14.63;9.38;;;9.40;99.90;;;;;;6363936;22;20060;-67
2023/04/19 00:25:48;;;;;;;13.52;9.05;;;9.40;99.90;;;;;;6364894;22;20018;-67
2023/04/19 00:28:14;;;;;;;16.27;8.70;;;9.40;99.90;;;;;;6364620;22;20056;-67
2023/04/19 00:30:40;;;;;;;15.23;8.60;;;9.30;99.90;;;;;;6364429;22;20018;-67
2023/04/19 00:33:11;;;;;;;17.40;9.93;;;9.40;99.90;;;;;;6364313;22;20048;-67
2023/04/19 00:35:39;;;;;;;15.82;9.15;;;9.40;99.90;;;;;;6310113;22;20413;-67
2023/04/19 00:38:05;;;;;;;15.60;8.75;;;9.40;99.90;;;;;;6335997;22;20018;-67
2023/04/19 00:40:31;;;;;;;15.45;9.70;;;9.40;99.90;;;;;;6364477;22;20015;-66
2023/04/19 00:42:56;;;;;;;13.95;8.43;;;9.40;99.90;;;;;;6364617;22;20053;-67
2023/04/19 00:45:22;;;;;;;14.40;8.65;;;9.30;99.90;;;;;;6364355;22;20022;-67
2023/04/19 00:47:48;;;;;;;12.82;8.40;;;9.30;99.90;;;;;;6364760;22;20071;-67
2023/04/19 00:50:14;;;;;;;12.75;8.00;;;9.30;99.90;;;;;;6363132;22;20007;-67
2023/04/19 00:52:40;;;;;;;15.73;9.15;;;9.20;99.90;;;;;;6363971;22;20085;-67
2023/04/19 00:55:07;;;;;;;13.43;8.43;;;9.20;99.90;;;;;;6364411;22;20489;-67
2023/04/19 00:57:33;;;;;;;13.55;8.25;;;9.20;99.90;;;;;;6364553;22;20038;-67
2023/04/19 00:59:59;;;;;;;10.80;8.00;;;9.30;99.90;;;;;;6363864;22;20424;-67
2023/04/19 01:02:24;;;;;;;12.50;7.35;;;9.30;99.90;;;;;;6336227;22;20049;-67
2023/04/19 01:04:51;;;;;;;11.05;7.63;;;9.30;99.90;;;;;;6364332;22;20081;-67
2023/04/19 01:07:18;;;;;;;12.70;8.15;;;9.20;99.90;;;;;;6364530;22;20010;-67
2023/04/19 01:09:45;;;;;;;11.18;7.75;;;9.20;99.90;;;;;;6364364;22;20101;-66
2023/04/19 01:12:10;;;;;;;13.32;7.75;;;9.20;99.90;;;;;;6364211;22;20017;-67
2023/04/19 01:14:36;;;;;;;11.77;7.97;;;9.20;99.90;;;;;;6335925;22;20368;-67
2023/04/19 01:17:02;;;;;;;14.32;8.38;;;9.20;99.90;;;;;;6364494;22;20018;-67
2023/04/19 01:19:27;;;;;;;9.10;7.30;;;9.20;99.90;;;;;;6363984;22;20487;-67
2023/04/19 01:21:55;;;;;;;13.93;8.20;;;9.20;99.90;;;;;;6364488;22;20054;-67
2023/04/19 01:24:20;;;;;;;11.70;7.30;;;9.20;99.90;;;;;;6335840;22;20010;-67
2023/04/19 01:26:46;;;;;;;10.40;7.47;;;9.20;99.90;;;;;;6336178;22;20083;-67
2023/04/19 01:29:12;;;;;;;11.40;7.45;;;9.20;99.90;;;;;;6335956;22;20057;-67
2023/04/19 01:31:38;;;;;;;12.50;8.00;;;9.20;99.90;;;;;;6335806;22;20040;-67
2023/04/19 01:34:04;;;;;;;12.85;7.38;;;9.20;99.90;;;;;;6363847;22;20059;-67
2023/04/19 01:36:30;;;;;;;9.50;7.22;;;9.20;99.90;;;;;;6364095;22;20063;-67
2023/04/19 01:38:56;;;;;;;10.40;7.03;;;9.20;99.90;;;;;;6363762;22;20018;-67
2023/04/19 01:41:25;;;;;;;12.40;6.50;;;9.20;99.90;;;;;;6363969;22;20107;-67
2023/04/19 01:43:51;;;;;;;10.38;6.95;;;9.20;99.90;;;;;;6363751;22;20470;-67
2023/04/19 01:46:17;;;;;;;17.15;7.25;;;9.20;99.90;;;;;;6335671;22;20045;-67
2023/04/19 01:48:43;;;;;;;10.65;7.57;;;9.10;99.90;;;;;;6364029;22;20393;-67
2023/04/19 01:51:09;;;;;;;14.50;7.38;;;9.10;99.90;;;;;;6363325;22;20018;-67
2023/04/19 01:53:34;;;;;;;13.70;7.18;;;9.00;99.90;;;;;;6364018;22;20047;-67
2023/04/19 01:56:00;;;;;;;11.07;7.35;;;9.00;99.90;;;;;;6364010;22;20093;-67
2023/04/19 01:58:25;;;;;;;12.85;7.88;;;9.00;99.90;;;;;;6363937;22;20097;-67
2023/04/19 02:00:51;;;;;;;10.32;7.93;;;9.00;99.90;;;;;;6363800;22;20460;-67
2023/04/19 02:03:17;;;;;;;13.18;8.40;;;9.00;99.90;;;;;;6335359;22;20105;-67
2023/04/19 02:05:43;;;;;;;10.35;6.93;;;8.90;99.90;;;;;;6364128;22;20018;-67
2023/04/19 02:08:08;;;;;;;13.52;7.13;;;8.90;99.90;;;;;;6363477;22;20054;-67
2023/04/19 02:10:34;;;;;;;11.43;8.57;;;8.90;99.90;;;;;;6363477;22;20018;-67
2023/04/19 02:13:00;;;;;;;13.32;6.93;;;8.80;99.90;;;;;;6363204;22;20021;-67
2023/04/19 02:15:26;;;;;;;10.15;7.03;;;8.90;99.90;;;;;;6363462;22;20017;-67
2023/04/19 02:17:51;;;;;;;11.35;7.85;;;8.80;99.90;;;;;;6335538;22;20026;-66
2023/04/19 02:20:17;;;;;;;14.35;7.45;;;8.80;99.90;;;;;;6363829;22;20022;-67
2023/04/19 02:22:43;;;;;;;11.48;7.15;;;8.80;99.90;;;;;;6363343;22;20135;-67
2023/04/19 02:25:09;;;;;;;10.80;6.93;;;8.80;99.90;;;;;;6334368;22;20410;-67
2023/04/19 02:27:34;;;;;;;13.55;7.63;;;8.80;99.90;;;;;;6362598;22;20022;-67
2023/04/19 02:30:00;;;;;;;13.35;7.85;;;8.80;99.90;;;;;;6362723;22;20139;-67
2023/04/19 02:32:26;;;;;;;11.85;7.13;;;8.70;99.90;;;;;;6334982;22;20430;-67
2023/04/19 02:34:52;;;;;;;10.55;7.22;;;8.70;99.90;;;;;;6334876;22;20029;-67
2023/04/19 02:37:18;;;;;;;14.95;8.35;;;8.70;99.90;;;;;;6363059;22;20056;-67
2023/04/19 02:39:44;;;;;;;12.25;8.15;;;8.60;99.90;;;;;;6334903;22;20086;-65
2023/04/19 02:42:10;;;;;;;11.68;6.85;;;8.60;99.90;;;;;;6334484;22;20454;-67
2023/04/19 02:44:36;;;;;;;10.30;6.93;;;8.60;99.90;;;;;;6334965;22;20030;-67
2023/04/19 02:47:02;;;;;;;12.85;6.82;;;8.60;99.90;;;;;;6335593;22;20054;-67
2023/04/19 02:59:58;;;;;;;9.80;6.50;;;8.60;99.90;;;;;;6288227;22;20102;-67
2023/04/19 03:02:24;;;;;;;11.48;6.82;;;8.50;99.90;;;;;;6309005;22;20034;-67
2023/04/19 03:04:51;;;;;;;11.77;6.07;;;8.50;99.90;;;;;;6305995;22;20021;-67
2023/04/19 03:07:17;;;;;;;9.73;6.70;;;8.50;99.90;;;;;;6321685;22;20022;-67
2023/04/19 03:09:43;;;;;;;12.13;7.90;;;8.50;99.90;;;;;;6333818;22;20473;-67
2023/04/19 03:12:09;;;;;;;10.98;7.32;;;8.40;99.90;;;;;;6305313;22;20026;-67
2023/04/19 03:14:35;;;;;;;12.57;7.25;;;8.40;99.90;;;;;;6333531;22;20014;-67
2023/04/19 03:17:01;;;;;;;12.68;7.40;;;8.40;99.90;;;;;;6305341;22;20014;-66
2023/04/19 03:19:26;;;;;;;14.65;7.00;;;8.40;99.90;;;;;;6305581;22;20031;-67
2023/04/19 03:21:52;;;;;;;12.10;7.00;;;8.30;99.90;;;;;;6333471;22;20026;-67
2023/04/19 03:24:19;;;;;;;14.35;7.65;;;8.20;99.90;;;;;;6305802;22;20029;-67
2023/04/19 03:26:44;;;;;;;18.35;8.82;;;8.20;99.90;;;;;;6332994;22;20014;-67
2023/04/19 03:29:13;;;;;;;11.88;6.70;;;8.10;99.90;;;;;;6333601;22;20022;-67
2023/04/19 03:31:38;;;;;;;14.27;8.43;;;8.10;99.90;;;;;;6333336;22;20088;-67
2023/04/19 03:34:04;;;;;;;10.15;7.53;;;8.00;99.90;;;;;;6333070;22;20374;-66
2023/04/19 03:36:30;;;;;;;14.38;7.13;;;8.00;99.90;;;;;;6333687;22;20438;-67
2023/04/19 03:38:55;;;;;;;11.98;7.45;;;8.00;99.90;;;;;;6332481;22;20274;-67
2023/04/19 03:41:24;;;;;;;10.82;7.00;;;8.00;99.90;;;;;;6333030;22;20026;-66
2023/04/19 03:43:49;;;;;;;12.95;7.18;;;7.90;99.90;;;;;;6305531;22;20486;-67
2023/04/19 03:46:15;;;;;;;12.73;6.95;;;7.80;99.90;;;;;;6333290;22;20046;-67
2023/04/19 03:48:41;;;;;;;12.18;7.47;;;7.80;99.90;;;;;;6333377;22;20025;-66
2023/04/19 03:51:06;;;;;;;15.55;7.43;;;7.80;99.90;;;;;;6333185;22;20426;-67
2023/04/19 03:53:32;;;;;;;14.18;7.85;;;7.70;99.90;;;;;;6333379;22;20045;-67
2023/04/19 03:55:58;;;;;;;11.68;7.65;;;7.70;99.90;;;;;;6305444;22;20023;-67
2023/04/19 03:58:24;;;;;;;12.18;7.00;;;7.60;99.90;;;;;;6332886;22;20172;-66
2023/04/19 04:00:50;;;;;;;14.35;7.25;;;7.60;99.90;;;;;;6305055;22;20023;-66
2023/04/19 04:03:16;;;;;;;11.52;7.95;;;7.60;99.90;;;;;;6332734;22;20081;-67
2023/04/19 04:05:42;;;;;;;11.85;7.38;;;7.50;99.90;;;;;;6305342;22;20019;-67
2023/04/19 04:08:08;;;;;;;12.85;7.55;;;7.50;99.90;;;;;;6332852;22;20126;-67
2023/04/19 04:10:33;;;;;;;10.57;7.38;;;7.40;99.90;;;;;;6332987;22;20026;-66
2023/04/19 04:12:59;;;;;;;10.73;7.10;;;7.40;99.90;;;;;;6333513;22;20026;-67
2023/04/19 04:15:25;;;;;;;13.80;8.38;;;7.30;99.90;;;;;;6333152;22;20018;-67
2023/04/19 04:17:50;;;;;;;10.77;7.10;;;7.30;99.90;;;;;;6333490;22;20014;-67
2023/04/19 04:20:16;;;;;;;12.23;7.30;;;7.30;99.90;;;;;;6333064;22;20022;-67
2023/04/19 04:22:44;;;;;;;11.65;6.82;;;7.30;99.90;;;;;;6332941;22;20125;-67
2023/04/19 04:25:11;;;;;;;10.57;7.38;;;7.30;99.90;;;;;;6305261;22;20073;-67
2023/04/19 04:27:38;;;;;;;10.55;7.45;;;7.30;99.90;;;;;;6305192;22;20489;-67
2023/04/19 04:30:05;;;;;;;14.90;7.63;;;7.20;99.90;;;;;;6361595;22;20028;-67
2023/04/19 04:32:34;;;;;;;11.57;6.90;;;7.20;99.90;;;;;;6336494;22;20452;-66
2023/04/19 04:35:01;;;;;;;12.88;7.28;;;7.20;99.90;;;;;;6336252;22;20018;-66
2023/04/19 04:37:27;;;;;;;11.93;6.53;;;7.20;99.90;;;;;;6364749;22;20134;-67
2023/04/19 04:39:52;;;;;;;11.88;6.85;;;7.20;99.90;;;;;;6364152;22;20187;-66
2023/04/19 04:42:20;;;;;;;9.38;6.05;;;7.10;99.90;;;;;;6364148;22;20042;-66
2023/04/19 04:44:46;;;;;;;13.07;7.13;;;7.20;99.90;;;;;;6336563;22;20121;-67
2023/04/19 04:47:12;;;;;;;11.15;7.07;;;7.10;99.90;;;;;;6364799;22;20026;-66
2023/04/19 04:49:38;;;;;;;10.45;6.20;;;7.10;99.90;;;;;;6364459;22;20067;-66
2023/04/19 04:52:05;;;;;;;15.05;6.68;;;7.10;99.90;;;;;;6364862;22;20014;-66
2023/04/19 04:54:31;;;;;;;10.95;6.15;;;7.10;99.90;;;;;;6365045;22;20006;-66
2023/04/19 04:56:58;;;;;;;10.07;6.45;;;7.00;99.90;;;;;;6364544;22;20018;-66
2023/04/19 04:59:23;;;;;;;11.70;6.80;;;7.10;99.90;;;;;;6364616;22;20397;-66
2023/04/19 05:01:49;;;;;;;15.43;7.68;;;7.00;99.90;;;;;;6363981;22;20022;-66
2023/04/19 05:04:15;;;;;;;11.48;7.32;;;7.00;99.90;;;;;;6336151;22;20014;-66
2023/04/19 05:06:41;;;;;;;10.00;6.43;;;7.00;99.90;;;;;;6363934;22;20014;-66
2023/04/19 05:09:07;;;;;;;12.55;6.38;;;7.00;99.90;;;;;;6364060;22;20046;-66
2023/04/19 05:11:32;;;;;;;11.00;6.72;;;7.00;99.90;;;;;;6335797;22;20022;-66
2023/04/19 05:13:58;;;;;;;10.85;7.10;;;7.10;99.90;;;;;;6364528;22;20052;-67
2023/04/19 05:16:26;;;;;;;8.38;5.90;;;7.20;99.90;;;;;;6335989;22;20026;-67
2023/04/19 05:18:51;;;;;;;8.45;5.28;;;7.20;99.90;;;;;;6363843;22;20050;-66
2023/04/19 05:21:17;;;;;;;15.55;7.28;;;7.30;99.90;;;;;;6363126;22;20538;-66
2023/04/19 05:23:43;;;;;;;11.63;6.40;;;7.40;99.90;;;;;;6335548;22;20026;-66
2023/04/19 05:26:11;;;;;;;10.77;6.38;;;7.40;99.90;;;;;;6363711;22;20025;-66
2023/04/19 05:28:37;;;;;;;13.65;6.63;;;7.50;99.90;;;;;;6335583;22;20017;-67
2023/04/19 05:31:03;;;;;;;7.88;5.32;;;7.50;99.90;;;;;;6363714;22;20365;-66
2023/04/19 05:33:29;;;;;;;10.40;5.70;;;7.50;99.90;;;;;;6363314;22;20121;-67
2023/04/19 05:35:55;;;;;;;9.52;5.57;;;7.50;99.90;;;;;;6363560;22;20036;-67
2023/04/19 05:38:20;;;;;;;10.15;6.55;;;7.70;99.90;;;;;;6335042;22;20353;-68
2023/04/19 05:40:46;;;;;;;7.22;5.32;;;7.80;99.90;;;;;;6334636;22;20707;-67
2023/04/19 05:43:12;;;;;;;7.10;5.78;;;7.90;99.90;;;;;;6363505;22;20048;-67
2023/04/19 05:45:37;;;;;;;12.90;6.13;;;7.90;99.90;;;;;;6363383;22;20014;-66
2023/04/19 05:48:04;;;;;;;9.05;6.07;;;7.90;99.90;;;;;;6362909;22;20502;-66
2023/04/19 05:50:30;;;;;;;7.82;5.32;;;8.00;99.90;;;;;;6363503;22;20058;-67
2023/04/19 05:52:56;;;;;;;8.23;5.30;;;8.00;99.90;;;;;;6363464;22;20410;-66
2023/04/19 05:55:21;;;;;;;9.45;5.53;;;8.20;99.90;;;;;;6334948;22;20026;-66
2023/04/19 05:57:47;;;;;;;7.63;4.45;;;8.20;99.90;;;;;;6363645;22;20037;-67
2023/04/19 06:00:14;;;;;;;8.38;5.32;;;8.20;99.90;;;;;;6363417;22;20175;-67
2023/04/19 06:02:40;;;;;;;7.38;5.18;;;8.20;99.90;;;;;;6362956;22;20501;-67
2023/04/19 06:05:06;;;;;;;6.82;5.50;;;8.30;99.90;;;;;;6362835;22;20038;-67
2023/04/19 06:07:32;;;;;;;8.55;5.07;;;8.40;99.90;;;;;;6363556;22;20022;-67
2023/04/19 06:09:57;;;;;;;7.72;4.72;;;8.60;99.90;;;;;;6363491;22;20025;-67
2023/04/19 06:12:23;;;;;;;12.23;5.05;;;8.50;99.90;;;;;;6363927;22;20090;-68
2023/04/19 06:14:50;;;;;;;7.38;3.97;;;8.50;99.90;;;;;;6363760;22;20082;-67
2023/04/19 06:17:15;;;;;;;7.03;4.95;;;8.50;99.90;;;;;;6363991;22;20010;-67
2023/04/19 06:19:41;;;;;;;7.28;4.22;;;8.60;99.90;;;;;;6363627;22;20056;-67
2023/04/19 06:22:07;;;;;;;6.63;4.57;;;8.70;99.90;;;;;;6335134;22;20018;-67
2023/04/19 06:24:33;;;;;;;6.30;4.00;;;8.80;99.90;;;;;;6363964;22;20429;-67
2023/04/19 06:26:59;;;;;;;10.13;4.00;;;8.90;99.90;;;;;;6335567;22;20327;-67
2023/04/19 06:29:24;;;;;;;5.70;4.25;;;8.80;99.90;;;;;;6363533;22;20015;-67
2023/04/19 06:31:50;;;;;;;8.07;4.07;;;8.80;99.90;;;;;;6363531;22;20024;-67
2023/04/19 06:34:16;;;;;;;9.13;4.40;;;8.80;99.90;;;;;;6363159;22;20022;-67
2023/04/19 06:36:41;;;;;;;7.28;3.88;;;8.80;99.90;;;;;;6363806;22;20039;-67
2023/04/19 06:39:07;;;;;;;5.72;3.92;;;8.80;99.90;;;;;;6363670;22;20026;-67
2023/04/19 06:41:33;;;;;;;10.60;4.25;;;8.90;99.90;;;;;;6363273;22;20022;-67
2023/04/19 06:43:58;;;;;;;7.50;4.65;;;8.90;99.90;;;;;;6364135;22;20506;-67
2023/04/19 06:46:26;;;;;;;5.78;3.70;;;8.90;99.90;;;;;;6363597;22;20019;-67
2023/04/19 06:48:51;;;;;;;5.93;3.65;;;8.90;99.90;;;;;;6362982;22;20168;-67
2023/04/19 06:51:17;;;;;;;10.07;3.72;;;9.00;99.90;;;;;;6363914;22;20141;-66
2023/04/19 06:53:43;;;;;;;4.88;3.60;;;9.00;99.90;;;;;;6335543;22;20026;-67
2023/04/19 06:56:09;;;;;;;4.50;3.60;;;9.10;99.90;;;;;;6363529;22;20079;-66
2023/04/19 06:58:35;;;;;;;12.43;4.28;;;9.00;99.90;;;;;;6363742;22;20011;-66
2023/04/19 07:01:03;;;;;;;4.60;3.50;;;9.10;99.90;;;;;;6363365;22;20022;-67
2023/04/19 07:03:28;;;;;;;7.05;3.55;;;9.20;99.90;;;;;;6361921;22;20018;-66
2023/04/19 07:05:57;;;;;;;6.72;3.47;;;9.30;99.90;;;;;;6363456;22;20021;-65
2023/04/19 07:08:23;;;;;;;4.53;3.33;;;9.40;99.90;;;;;;6364204;22;20584;-66
2023/04/19 07:10:49;;;;;;;5.80;3.33;;;9.30;99.90;;;;;;6364480;22;20018;-66
2023/04/19 07:13:15;;;;;;;5.18;3.40;;;9.30;99.90;;;;;;6364157;22;20006;-66
2023/04/19 07:15:40;;;;;;;5.30;3.15;;;9.50;99.90;;;;;;6336705;22;20041;-65
2023/04/19 07:18:06;;;;;;;5.82;2.92;;;9.50;99.90;;;;;;6364710;22;20041;-66
2023/04/19 07:20:32;;;;;;;5.07;3.10;;;9.50;99.90;;;;;;6364120;22;20400;-66
2023/04/19 07:22:58;;;;;;;5.18;3.20;;;9.60;99.90;;;;;;6364147;22;20413;-65
2023/04/19 07:25:24;;;;;;;6.07;2.95;;;9.60;99.90;;;;;;6364471;22;20011;-65
2023/04/19 07:27:52;;;;;;;3.00;2.67;;;9.60;99.90;;;;;;6363803;22;20057;-66
2023/04/19 07:30:18;;;;;;;5.15;3.03;;;9.70;99.90;;;;;;6363178;22;20022;-66
2023/04/19 07:32:45;;;;;;;3.22;2.92;;;9.70;99.90;;;;;;6335941;22;20021;-67
2023/04/19 07:35:10;;;;;;;3.72;2.67;;;9.80;99.90;;;;;;6365428;22;20017;-67
2023/04/19 07:37:36;;;;;;;4.63;3.03;;;9.80;99.90;;;;;;6365642;22;20545;-67
2023/04/19 07:40:03;;;;;;;5.68;2.65;;;9.90;99.90;;;;;;6365395;22;20075;-67
2023/04/19 07:42:29;;;;;;;5.45;2.85;;;9.90;99.90;;;;;;6338192;22;20045;-67
2023/04/19 07:44:55;;;;;;;2.95;2.50;;;10.00;99.90;;;;;;6367185;22;20018;-67
2023/04/19 07:47:21;;;;;;;3.72;2.55;;;10.00;99.90;;;;;;6337721;22;20409;-67
2023/04/19 07:49:51;;;;;;;5.72;2.90;;;10.10;99.90;;;;;;6365816;22;20014;-67
2023/04/19 07:52:17;;;;;;;3.50;2.47;;;10.00;99.90;;;;;;6337112;22;20030;-66
2023/04/19 07:54:43;;;;;;;5.78;2.97;;;10.20;99.90;;;;;;6337060;22;20037;-66
2023/04/19 07:57:08;;;;;;;4.95;2.70;;;10.20;99.90;;;;;;6365768;22;20311;-66
2023/04/19 07:59:34;;;;;;;4.32;2.90;;;10.20;99.90;;;;;;6337601;22;20458;-66
2023/04/19 08:02:00;;;;;;;2.97;2.53;;;10.30;99.90;;;;;;6365359;22;20093;-66
2023/04/19 08:04:25;;;;;;;5.55;2.65;;;10.40;99.90;;;;;;6337598;22;20095;-65
2023/04/19 08:06:51;;;;;;;5.53;3.28;;;10.50;99.90;;;;;;6364962;22;20414;-65
2023/04/19 08:09:18;;;;;;;4.32;2.78;;;10.70;99.90;;;;;;6365206;22;20018;-65
2023/04/19 08:11:43;;;;;;;6.45;3.92;;;10.60;99.90;;;;;;6365520;22;20341;-65
2023/04/19 08:14:09;;;;;;;6.32;2.75;;;10.60;99.90;;;;;;6366031;22;20114;-66
2023/04/19 08:16:35;;;;;;;4.35;3.00;;;10.50;99.90;;;;;;6365288;22;20338;-66
2023/04/19 08:19:00;;;;;;;4.13;2.78;;;10.50;99.90;;;;;;6337474;22;20015;-66
2023/04/19 08:21:26;;;;;;;5.10;2.88;;;10.50;99.90;;;;;;6337504;22;20034;-66
2023/04/19 08:23:52;;;;;;;5.40;3.53;;;10.50;99.90;;;;;;6365228;22;20445;-66
2023/04/19 08:26:18;;;;;;;5.53;3.50;;;10.70;99.90;;;;;;6337186;22;20090;-66
2023/04/19 08:28:44;;;;;;;4.10;3.55;;;10.70;99.90;;;;;;6365056;22;20089;-66
2023/04/19 08:31:09;;;;;;;5.50;2.90;;;10.80;99.90;;;;;;6365154;22;20024;-66
2023/04/19 08:33:35;;;;;;;4.13;2.92;;;10.80;99.90;;;;;;6365387;22;20068;-67
2023/04/19 08:36:01;;;;;;;5.90;3.40;;;10.90;99.90;;;;;;6364988;22;20079;-67
2023/04/19 08:38:27;;;;;;;5.28;2.88;;;10.90;99.90;;;;;;6365459;22;20029;-67
2023/04/19 08:40:56;;;;;;;4.82;3.45;;;10.90;99.90;;;;;;6365108;22;20014;-67
2023/04/19 08:43:24;;;;;;;5.05;3.47;;;11.00;99.90;;;;;;6365036;22;20400;-66
2023/04/19 08:45:51;;;;;;;6.22;3.25;;;11.00;99.90;;;;;;6364926;22;20007;-66
2023/04/19 08:48:17;;;;;;;3.75;2.80;;;11.00;99.90;;;;;;6364616;22;20022;-67
2023/04/19 08:50:45;;;;;;;9.70;3.22;;;11.00;99.90;;;;;;6336886;22;20022;-66
2023/04/19 08:53:11;;;;;;;4.82;3.15;;;11.10;99.90;;;;;;6364884;22;20090;-66
2023/04/19 08:55:39;;;;;;;4.82;3.25;;;11.20;99.90;;;;;;6336880;22;20071;-66
2023/04/19 08:58:05;;;;;;;6.40;3.10;;;11.30;99.90;;;;;;6364362;22;20022;-66
2023/04/19 09:00:33;;;;;;;4.78;3.47;;;11.40;99.90;;;;;;6364759;22;20020;-67
2023/04/19 09:02:59;;;;;;;5.25;3.75;;;11.40;99.90;;;;;;6364701;22;20035;-67
2023/04/19 09:05:24;;;;;;;7.07;3.08;;;11.40;99.90;;;;;;6365009;22;20060;-67
2023/04/19 09:07:50;;;;;;;5.00;3.08;;;11.40;99.90;;;;;;6364947;22;20067;-67
2023/04/19 09:10:20;;;;;;;6.75;3.28;;;11.40;99.90;;;;;;6336557;22;20345;-67
2023/04/19 09:13:18;;;;;;;7.53;3.88;;;11.50;99.90;;;;;;6336587;22;20018;-67
2023/04/19 09:15:44;;;;;;;6.03;3.30;;;11.60;99.90;;;;;;6278336;22;20025;-67
2023/04/19 09:18:10;;;;;;;4.07;3.00;;;11.60;99.90;;;;;;6336187;22;20057;-67
2023/04/19 09:20:43;;;;;;;4.00;2.80;;;11.60;98.30;;;;;;6336271;22;20079;-67
2023/04/19 09:23:11;;;;;;;3.67;2.83;;;11.60;98.10;;;;;;6363895;22;20054;-67
2023/04/19 09:25:38;;;;;;;5.20;2.83;;;11.70;99.90;;;;;;6364530;22;20032;-67
2023/04/19 09:28:11;;;;;;;3.05;2.75;;;11.60;98.30;;;;;;6363770;22;20022;-68
2023/04/19 09:30:37;;;;;;;2.92;2.33;;;11.70;98.10;;;;;;6365308;22;20398;-65
2023/04/19 09:33:03;;;;;;;3.35;3.00;;;12.00;99.00;;;;;;6365220;22;20021;-66
2023/04/19 09:35:41;;;;;;;4.28;2.60;;;12.10;99.00;;;;;;6337093;22;20026;-67
2023/04/19 09:38:07;;;;;;;4.05;2.97;;;12.00;97.40;;;;;;6365356;22;20072;-67
2023/04/19 09:40:33;;;;;;;3.25;2.60;;;12.00;95.80;;;;;;6365258;22;20034;-67
2023/04/19 09:42:59;;;;;;;4.38;2.75;;;11.90;96.00;;;;;;6364845;22;20296;-67
2023/04/19 09:45:27;;;;;;;3.47;2.40;;;12.00;97.20;;;;;;6365358;22;20130;-68
2023/04/19 09:48:04;;;;;;;3.05;2.45;;;12.10;94.70;;;;;;6336701;22;20479;-67
2023/04/19 09:50:30;;;;;;;3.95;2.95;;;12.20;95.80;;;;;;6364954;22;20021;-66
2023/04/19 09:52:57;;;;;;;8.55;3.15;;;12.20;97.80;;;;;;6365104;22;20537;-66
2023/04/19 09:55:24;;;;;;;7.38;2.85;;;12.20;95.40;;;;;;6364334;22;20014;-66
2023/04/19 09:57:51;;;;;;;6.28;2.50;;;12.20;96.60;;;;;;6335870;22;20388;-66
2023/04/19 10:00:17;;;;;;;5.85;2.70;;;12.10;96.20;;;;;;6364506;22;20494;-67
2023/04/19 10:02:46;;;;;;;6.53;2.97;;;12.30;97.50;;;;;;6363969;22;20655;-66
2023/04/19 10:05:15;;;;;;;4.32;2.33;;;12.20;97.30;;;;;;6364390;22;20052;-66
2023/04/19 10:07:41;;;;;;;3.47;2.20;;;12.30;97.40;;;;;;6364338;22;20052;-66
2023/04/19 10:10:08;;;;;;;3.03;2.47;;;12.30;98.00;;;;;;6364551;22;20044;-67
2023/04/19 10:12:35;;;;;;;3.90;2.58;;;12.40;99.80;;;;;;6364310;22;20014;-66
2023/04/19 10:15:00;;;;;;;3.28;2.45;;;12.50;98.20;;;;;;6364603;22;20014;-66
2023/04/19 10:17:26;;;;;;;3.15;2.72;;;12.60;97.70;;;;;;6364191;22;20046;-66
2023/04/19 10:20:07;;;;;;;3.72;2.08;;;12.50;96.70;;;;;;6364260;22;20052;-66
2023/04/19 10:22:36;;;;;;;3.17;2.15;;;12.60;96.10;;;;;;6364271;22;20007;-66
2023/04/19 10:25:16;;;;;;;3.45;2.22;;;12.70;95.20;;;;;;6363615;22;20475;-67
2023/04/19 10:27:45;;;;;;;2.83;1.95;;;12.70;93.50;;;;;;6364532;22;20390;-67
2023/04/19 10:30:21;;;;;;;3.30;2.10;;;12.60;90.30;;;;;;6364417;22;20022;-67
2023/04/19 10:32:55;;;;;;;3.03;2.25;;;12.70;91.10;;;;;;6364400;22;20014;-66
2023/04/19 10:35:34;;;;;;;2.22;2.05;;;12.60;91.20;;;;;;6336910;22;20022;-66
2023/04/19 10:38:13;;;;;;;2.40;2.15;;;12.60;91.70;;;;;;6336856;22;20041;-66
2023/04/19 10:40:53;;;;;;;3.88;2.03;;;12.60;90.60;;;;;;6364304;22;20036;-66
2023/04/19 10:43:20;;;;;;;4.22;2.63;;;12.70;91.60;;;;;;6336724;22;20057;-66
2023/04/19 10:45:46;;;;;;;2.40;2.22;;;12.90;94.40;;;;;;6364867;22;20006;-67
2023/04/19 10:48:52;;;;;;;4.07;2.33;;;12.90;92.50;;;;;;6364587;22;20022;-67
2023/04/19 10:51:22;;;;;;;5.45;2.72;;;13.00;91.00;;;;;;6342644;22;20113;-66
2023/04/19 10:53:53;;;;;;;4.30;2.60;;;13.00;88.10;;;;;;6364661;22;20014;-67
2023/04/19 10:56:21;;;;;;;2.42;2.13;;;13.00;90.90;;;;;;6364325;22;20047;-67
2023/04/19 10:59:06;;;;;;;2.50;2.03;;;13.10;90.70;;;;;;6364269;22;20119;-66
2023/04/19 11:01:38;;;;;;;3.72;2.25;;;13.20;90.30;;;;;;6363656;22;20069;-66
2023/04/19 11:04:05;;;;;;;3.70;2.15;;;13.20;87.00;;;;;;6364284;22;20022;-67
2023/04/19 11:06:34;;;;;;;8.55;2.17;;;13.20;85.90;;;;;;6364226;22;20047;-67
2023/04/19 11:09:05;;;;;;;3.67;1.95;;;13.20;86.20;;;;;;6365731;22;20637;-67
2023/04/19 11:11:35;;;;;;;2.30;2.03;;;13.10;86.40;;;;;;6366225;22;20041;-66
2023/04/19 11:14:03;;;;;;;3.22;2.00;;;13.20;86.00;;;;;;6365007;22;20049;-66
2023/04/19 11:16:29;;;;;;;1.95;1.70;;;13.30;87.80;;;;;;6366187;22;20015;-67
2023/04/19 11:18:55;;;;;;;3.67;2.13;;;13.20;84.30;;;;;;6337802;22;20022;-67
2023/04/19 11:21:21;;;;;;;2.92;1.63;;;13.10;87.00;;;;;;6366269;22;20010;-67
2023/04/19 11:23:48;;;;;;;2.72;1.80;;;13.10;83.50;;;;;;6337824;22;20568;-67
2023/04/19 11:26:16;;;;;;;2.17;1.98;;;13.20;86.40;;;;;;6366018;22;20017;-67
2023/04/19 11:28:43;;;;;;;1.80;1.70;;;13.30;83.70;;;;;;6365920;22;20457;-67
2023/04/19 11:31:09;;;;;;;4.05;2.10;;;13.30;81.30;;;;;;6366128;22;20346;-67
2023/04/19 11:33:36;;;;;;;2.28;2.08;;;13.30;82.20;;;;;;6366731;22;20010;-67
2023/04/19 11:36:02;;;;;;;2.13;1.73;;;13.20;85.10;;;;;;6366732;22;20050;-67
2023/04/19 11:38:29;;;;;;;3.42;2.10;;;13.40;82.60;;;;;;6366199;22;20010;-67
2023/04/19 11:41:03;;;;;;;3.38;2.10;;;13.40;84.20;;;;;;6366689;22;20026;-66
2023/04/19 11:43:33;;;;;;;3.00;2.40;;;13.50;85.50;;;;;;6338132;22;20023;-67
2023/04/19 11:46:07;;;;;;;4.47;2.00;;;13.40;89.10;;;;;;6366393;22;20330;-68
2023/04/19 11:48:33;;;;;;;2.15;1.95;;;13.60;90.10;;;;;;6365935;22;20054;-69
2023/04/19 11:51:00;;;;;;;3.95;1.98;;;13.60;89.70;;;;;;6337979;22;20048;-69
2023/04/19 11:53:27;;;;;;;2.53;2.30;;;13.50;90.40;;;;;;6338395;22;20021;-69
2023/04/19 11:56:02;;;;;;;3.92;2.35;;;13.50;90.80;;;;;;6337955;22;20089;-69
2023/04/19 11:58:30;;;;;;;3.30;2.40;;;13.40;91.50;;;;;;6366190;22;20015;-69
2023/04/19 12:01:02;;;;;;;5.75;2.50;;;13.40;91.80;;;;;;6337697;22;20033;-68
2023/04/19 12:03:28;;;;;;;3.30;2.25;;;13.50;91.70;;;;;;6312299;22;20033;-69
2023/04/19 12:05:56;;;;;;;3.03;2.72;;;13.60;91.90;;;;;;6366749;22;20093;-69
2023/04/19 12:08:52;;;;;;;4.45;2.50;;;13.60;90.10;;;;;;6365842;22;20027;-69
2023/04/19 12:11:21;;;;;;;5.70;2.65;;;13.50;92.30;;;;;;6333388;22;20090;-68
2023/04/19 12:13:48;;;;;;;2.78;2.58;;;13.50;91.80;;;;;;6365982;22;20025;-69
2023/04/19 12:16:13;;;;;;;3.42;2.53;;;13.50;92.80;;;;;;6338314;22;20354;-68
2023/04/19 12:18:44;;;;;;;5.45;3.00;;;13.60;93.10;;;;;;6337114;22;20026;-68
2023/04/19 12:21:22;;;;;;;12.85;3.58;;;13.80;93.50;;;;;;6365063;22;20022;-68
2023/04/19 12:23:48;;;;;;;3.55;2.40;;;13.70;92.40;;;;;;6366404;22;20006;-68
2023/04/19 12:26:13;;;;;;;4.97;3.53;;;13.80;93.00;;;;;;6365672;22;20457;-69
2023/04/19 12:28:39;;;;;;;3.90;2.40;;;13.80;91.70;;;;;;6336873;22;20033;-68
2023/04/19 12:31:05;;;;;;;4.25;2.95;;;13.70;93.60;;;;;;6365715;22;20089;-68
2023/04/19 12:33:30;;;;;;;3.90;3.25;;;13.70;95.00;;;;;;6365579;22;20099;-68
2023/04/19 12:35:56;;;;;;;5.40;3.22;;;13.70;95.10;;;;;;6365470;22;20014;-68
2023/04/19 12:38:22;;;;;;;3.80;3.10;;;13.70;96.30;;;;;;6365603;22;20046;-67
2023/04/19 12:40:47;;;;;;;3.78;2.92;;;13.60;97.40;;;;;;6365321;22;20014;-68
2023/04/19 12:43:13;;;;;;;5.47;3.45;;;13.70;96.80;;;;;;6365788;22;20030;-68
2023/04/19 12:45:38;;;;;;;3.70;2.70;;;13.70;96.90;;;;;;6337231;22;20093;-68
2023/04/19 12:48:05;;;;;;;4.13;3.60;;;13.70;96.80;;;;;;6365129;22;20045;-67
2023/04/19 12:50:31;;;;;;;3.47;2.72;;;13.80;96.40;;;;;;6365161;22;20022;-67
2023/04/19 12:52:57;;;;;;;5.43;3.08;;;13.70;97.60;;;;;;6364985;22;20346;-68
2023/04/19 12:55:23;;;;;;;5.22;3.33;;;13.60;97.40;;;;;;6365579;22;20014;-68
2023/04/19 12:57:48;;;;;;;6.20;3.58;;;13.60;97.90;;;;;;6365325;22;20121;-68